createdAt,value
2022-12-04T00:01:32.879Z,37.47
2022-12-04T00:04:01.201Z,34.27
2022-12-04T00:06:29.017Z,32.73
2022-12-04T00:08:56.457Z,31.57
2022-12-04T00:11:26.697Z,34.23
2022-12-04T00:13:54.233Z,34.40
2022-12-04T00:16:24.337Z,31.27
2022-12-04T00:18:52.650Z,39.30
2022-12-04T00:21:21.012Z,38.37
2022-12-04T00:23:48.294Z,33.07
2022-12-04T00:26:18.546Z,31.53
2022-12-04T00:28:48.687Z,37.67
2022-12-04T00:31:19.190Z,34.43
2022-12-04T00:33:46.986Z,38.97
2022-12-04T00:36:17.168Z,32.53
2022-12-04T00:38:44.808Z,35.78
2022-12-04T00:41:17.889Z,34.50
2022-12-04T00:43:46.031Z,35.80
2022-12-04T00:46:13.184Z,37.97
2022-12-04T00:48:40.638Z,41.47
2022-12-04T00:51:11.004Z,40.35
2022-12-04T00:53:38.516Z,43.65
2022-12-04T00:56:08.430Z,38.60
2022-12-04T00:58:35.533Z,37.90
2022-12-04T01:01:05.480Z,40.47
2022-12-04T01:03:32.989Z,40.17
2022-12-04T01:06:04.257Z,37.53
2022-12-04T01:08:32.189Z,42.73
2022-12-04T01:10:59.471Z,35.07
2022-12-04T01:13:27.123Z,44.83
2022-12-04T01:15:57.328Z,33.75
2022-12-04T01:18:24.347Z,35.45
2022-12-04T01:20:56.627Z,38.05
2022-12-04T01:23:28.483Z,38.63
2022-12-04T01:25:57.681Z,34.85
2022-12-04T01:28:29.311Z,36.90
2022-12-04T01:31:04.774Z,33.15
2022-12-04T01:33:33.847Z,35.47
2022-12-04T01:36:02.470Z,31.30
2022-12-04T01:38:32.576Z,34.95
2022-12-04T01:40:59.729Z,33.35
2022-12-04T01:43:30.266Z,31.25
2022-12-04T01:46:01.805Z,33.73
2022-12-04T01:48:45.063Z,29.67
2022-12-04T01:51:26.233Z,32.85
2022-12-04T01:54:01.080Z,33.20
2022-12-04T01:56:41.192Z,29.15
2022-12-04T01:59:10.846Z,37.40
2022-12-04T02:01:46.538Z,31.10
2022-12-04T02:04:13.652Z,38.95
2022-12-04T02:06:44.536Z,32.60
2022-12-04T02:09:14.467Z,30.33
2022-12-04T02:12:02.848Z,34.28
2022-12-04T02:14:32.855Z,36.10
2022-12-04T02:17:29.210Z,37.27
2022-12-04T02:20:01.869Z,37.50
2022-12-04T02:25:13.084Z,36.03
2022-12-04T02:27:40.072Z,34.10
2022-12-04T02:30:16.330Z,36.20
2022-12-04T02:32:51.513Z,37.53
2022-12-04T02:35:41.045Z,38.13
2022-12-04T02:38:35.781Z,37.35
2022-12-04T02:41:23.699Z,35.97
2022-12-04T02:43:55.296Z,36.53
2022-12-04T02:46:36.781Z,35.10
2022-12-04T02:49:08.160Z,34.33
2022-12-04T02:51:38.153Z,34.30
2022-12-04T02:54:10.524Z,36.38
2022-12-04T02:56:42.872Z,34.90
2022-12-04T02:59:43.146Z,39.33
2022-12-04T03:02:21.346Z,29.70
2022-12-04T03:04:50.858Z,38.10
2022-12-04T03:07:25.281Z,35.13
2022-12-04T03:09:58.117Z,33.70
2022-12-04T03:12:43.714Z,31.33
2022-12-04T03:15:15.524Z,36.38
2022-12-04T03:18:06.120Z,34.17
2022-12-04T03:20:36.733Z,34.05
2022-12-04T03:23:13.511Z,33.05
2022-12-04T03:25:58.019Z,35.40
2022-12-04T03:28:38.735Z,32.40
2022-12-04T03:31:11.540Z,39.30
2022-12-04T03:33:46.590Z,34.20
2022-12-04T03:36:23.997Z,30.00
2022-12-04T03:39:01.636Z,29.58
2022-12-04T03:41:49.901Z,29.75
2022-12-04T03:44:31.612Z,28.75
2022-12-04T03:47:25.289Z,29.40
2022-12-04T03:50:22.283Z,37.83
2022-12-04T03:53:03.149Z,36.03
2022-12-04T03:55:40.155Z,35.93
2022-12-04T03:58:13.068Z,31.00
2022-12-04T04:00:43.004Z,29.70
2022-12-04T04:03:24.210Z,37.47
2022-12-04T04:05:58.630Z,41.72
2022-12-04T04:08:43.215Z,36.53
2022-12-04T04:11:26.374Z,31.53
2022-12-04T04:14:23.800Z,23.43
2022-12-04T04:17:18.691Z,35.47
2022-12-04T04:20:08.045Z,32.57
2022-12-04T04:22:56.333Z,32.92
2022-12-04T04:25:27.409Z,35.85
2022-12-04T04:27:56.574Z,32.87
2022-12-04T04:30:24.610Z,34.75
2022-12-04T04:32:57.529Z,29.95
2022-12-04T04:35:24.661Z,40.42
2022-12-04T04:38:54.198Z,44.50
2022-12-04T04:41:49.402Z,38.23
2022-12-04T04:44:51.781Z,37.30
2022-12-04T04:47:43.731Z,34.67
2022-12-04T04:50:12.807Z,34.80
2022-12-04T04:52:44.148Z,30.75
2022-12-04T04:55:11.312Z,31.60
2022-12-04T04:57:38.468Z,30.92
2022-12-04T05:00:17.077Z,30.47
2022-12-04T05:02:44.861Z,33.33
2022-12-04T05:05:13.359Z,32.63
2022-12-04T05:07:40.713Z,30.83
2022-12-04T05:10:08.800Z,34.10
2022-12-04T05:12:37.258Z,35.37
2022-12-04T05:15:04.708Z,32.75
2022-12-04T05:17:31.870Z,30.77
2022-12-04T05:19:59.067Z,29.52
2022-12-04T05:22:34.467Z,30.67
2022-12-04T05:25:02.437Z,30.33
2022-12-04T05:27:34.321Z,29.83
2022-12-04T05:30:01.495Z,34.10
2022-12-04T05:32:29.844Z,34.33
2022-12-04T05:34:58.223Z,37.03
2022-12-04T05:37:25.877Z,30.63
2022-12-04T05:39:54.524Z,32.13
2022-12-04T05:42:24.209Z,33.37
2022-12-04T05:44:51.214Z,36.33
2022-12-04T05:47:18.370Z,35.70
2022-12-04T05:49:45.401Z,38.10
2022-12-04T05:52:12.713Z,36.00
2022-12-04T05:54:40.337Z,34.17
2022-12-04T05:57:09.878Z,33.72
2022-12-04T05:59:37.960Z,29.33
2022-12-04T06:02:05.219Z,28.73
2022-12-04T06:04:32.544Z,36.07
2022-12-04T06:06:59.638Z,38.75
2022-12-04T06:09:26.643Z,40.33
2022-12-04T06:11:57.543Z,36.17
2022-12-04T06:14:24.673Z,29.77
2022-12-04T06:16:54.008Z,35.42
2022-12-04T06:19:24.086Z,31.38
2022-12-04T06:21:54.210Z,36.30
2022-12-04T06:24:24.220Z,33.25
2022-12-04T06:29:43.183Z,34.28
2022-12-04T06:32:10.403Z,37.80
2022-12-04T06:34:37.497Z,32.00
2022-12-04T06:37:04.577Z,31.45
2022-12-04T06:39:31.596Z,33.22
2022-12-04T06:41:58.703Z,34.13
2022-12-04T06:44:25.886Z,28.03
2022-12-04T06:46:54.773Z,31.30
2022-12-04T06:49:23.720Z,37.08
2022-12-04T06:51:50.742Z,30.70
2022-12-04T06:54:17.995Z,33.88
2022-12-04T06:56:45.039Z,28.30
2022-12-04T06:59:12.234Z,29.70
2022-12-04T07:01:39.509Z,33.10
2022-12-04T07:04:06.674Z,34.03
2022-12-04T07:06:36.129Z,34.60
2022-12-04T07:09:15.622Z,37.33
2022-12-04T07:11:43.787Z,33.13
2022-12-04T07:14:12.489Z,35.00
2022-12-04T07:16:42.010Z,32.07
2022-12-04T07:19:14.453Z,28.63
2022-12-04T07:21:42.914Z,30.67
2022-12-04T07:24:14.988Z,28.92
2022-12-04T07:26:42.289Z,27.73
2022-12-04T07:29:10.766Z,30.87
2022-12-04T07:31:38.532Z,25.37
2022-12-04T07:34:05.642Z,27.00
2022-12-04T07:36:32.891Z,33.30
2022-12-04T07:39:00.027Z,31.30
2022-12-04T07:41:28.319Z,29.27
2022-12-04T07:43:55.372Z,35.70
2022-12-04T07:46:26.436Z,33.03
2022-12-04T07:48:56.688Z,30.87
2022-12-04T07:51:29.650Z,37.27
2022-12-04T07:54:02.765Z,35.83
2022-12-04T07:56:31.212Z,33.60
2022-12-04T07:58:59.572Z,34.20
2022-12-04T08:01:26.806Z,32.17
2022-12-04T08:03:56.673Z,27.83
2022-12-04T08:06:25.203Z,28.47
2022-12-04T08:08:54.809Z,37.90
2022-12-04T08:11:25.209Z,31.00
2022-12-04T08:13:57.728Z,35.10
2022-12-04T08:16:25.983Z,33.67
2022-12-04T08:18:56.712Z,33.23
2022-12-04T08:21:25.811Z,31.13
2022-12-04T08:23:57.104Z,31.90
2022-12-04T08:26:26.238Z,29.43
2022-12-04T08:28:54.599Z,29.20
2022-12-04T08:31:27.720Z,31.57
2022-12-04T08:33:57.894Z,28.20
2022-12-04T08:36:25.075Z,35.57
2022-12-04T08:38:52.736Z,34.00
2022-12-04T08:41:26.383Z,30.13
2022-12-04T08:43:54.997Z,26.33
2022-12-04T08:46:25.695Z,27.50
2022-12-04T08:48:56.717Z,24.43
2022-12-04T08:51:27.330Z,24.03
2022-12-04T08:54:03.590Z,24.83
2022-12-04T08:56:31.639Z,25.07
2022-12-04T08:58:59.725Z,34.03
2022-12-04T09:01:28.290Z,31.40
2022-12-04T09:03:55.875Z,27.60
2022-12-04T09:06:26.612Z,31.57
2022-12-04T09:08:57.274Z,34.00
2022-12-04T09:11:27.840Z,29.65
2022-12-04T09:13:55.776Z,32.25
2022-12-04T09:16:24.650Z,28.17
2022-12-04T09:18:53.148Z,27.07
2022-12-04T09:21:24.624Z,27.83
2022-12-04T09:23:51.711Z,27.60
2022-12-04T09:26:28.529Z,26.07
2022-12-04T09:28:56.572Z,29.60
2022-12-04T09:31:24.759Z,27.33
2022-12-04T09:33:54.748Z,23.77
2022-12-04T09:36:24.203Z,24.67
2022-12-04T09:38:54.034Z,22.92
2022-12-04T09:41:40.216Z,25.23
2022-12-04T09:44:25.021Z,24.50
2022-12-04T09:47:00.987Z,25.48
2022-12-04T09:49:49.171Z,26.55
2022-12-04T09:52:39.364Z,22.23
2022-12-04T09:55:33.610Z,21.73
2022-12-04T09:58:04.404Z,23.35
2022-12-04T10:00:36.811Z,22.20
2022-12-04T10:03:11.748Z,18.85
2022-12-04T10:05:50.692Z,18.65
2022-12-04T10:08:23.273Z,21.75
2022-12-04T10:13:57.634Z,24.27
2022-12-04T10:16:45.766Z,22.20
2022-12-04T10:19:33.709Z,21.35
2022-12-04T10:22:17.332Z,17.83
2022-12-04T10:24:54.615Z,22.30
2022-12-04T10:27:26.346Z,21.80
2022-12-04T10:30:01.722Z,19.77
2022-12-04T10:32:33.518Z,17.67
2022-12-04T10:35:27.069Z,17.13
2022-12-04T10:38:16.319Z,18.17
2022-12-04T10:40:49.006Z,18.67
2022-12-04T10:45:58.679Z,18.20
2022-12-04T10:48:36.168Z,17.20
2022-12-04T10:51:03.447Z,16.02
2022-12-04T10:53:34.754Z,17.40
2022-12-04T10:56:28.168Z,16.13
2022-12-04T10:59:15.818Z,13.13
2022-12-04T11:01:42.899Z,13.60
2022-12-04T11:04:21.390Z,14.07
2022-12-04T11:06:54.767Z,14.80
2022-12-04T11:09:24.834Z,17.05
2022-12-04T11:11:52.783Z,16.00
2022-12-04T11:14:26.641Z,14.77
2022-12-04T11:17:06.448Z,14.15
2022-12-04T11:19:36.397Z,14.52
2022-12-04T11:22:16.091Z,14.10
2022-12-04T11:24:49.683Z,13.85
2022-12-04T11:27:35.440Z,17.33
2022-12-04T11:30:08.557Z,14.77
2022-12-04T11:32:38.864Z,16.67
2022-12-04T11:35:17.570Z,14.57
2022-12-04T11:37:54.628Z,15.38
2022-12-04T11:40:24.717Z,18.23
2022-12-04T11:43:18.896Z,14.80
2022-12-04T11:46:02.470Z,14.43
2022-12-04T11:48:31.664Z,15.32
2022-12-04T11:51:33.961Z,12.63
2022-12-04T11:54:26.209Z,13.93
2022-12-04T11:57:24.505Z,13.20
2022-12-04T12:00:18.555Z,13.07
2022-12-04T12:03:14.026Z,12.10
2022-12-04T12:06:13.933Z,12.40
2022-12-04T12:09:06.652Z,11.88
2022-12-04T12:12:03.318Z,15.25
2022-12-04T12:15:16.864Z,12.35
2022-12-04T12:18:15.335Z,16.10
2022-12-04T12:21:06.874Z,16.05
2022-12-04T12:23:49.268Z,15.07
2022-12-04T12:26:18.772Z,11.85
2022-12-04T12:29:10.717Z,10.82
2022-12-04T12:31:47.689Z,9.80
2022-12-04T12:34:43.126Z,10.57
2022-12-04T12:37:46.732Z,12.07
2022-12-04T12:40:40.017Z,11.95
2022-12-04T12:43:10.155Z,10.77
2022-12-04T12:45:48.592Z,11.38
2022-12-04T12:48:55.111Z,13.82
2022-12-04T12:51:37.064Z,10.27
2022-12-04T12:54:29.126Z,12.98
2022-12-04T12:57:05.874Z,11.63
2022-12-04T12:59:37.365Z,12.40
2022-12-04T13:02:39.964Z,12.83
2022-12-04T13:05:19.479Z,10.45
2022-12-04T13:07:56.104Z,9.27
2022-12-04T13:10:41.879Z,10.20
2022-12-04T13:13:17.283Z,9.43
2022-12-04T13:15:44.746Z,12.13
2022-12-04T13:18:22.771Z,11.80
2022-12-04T13:20:59.742Z,11.98
2022-12-04T13:23:51.291Z,14.65
2022-12-04T13:26:21.339Z,16.10
2022-12-04T13:29:20.549Z,13.80
2022-12-04T13:31:49.321Z,13.45
2022-12-04T13:34:39.158Z,10.97
2022-12-04T13:38:47.165Z,13.57
2022-12-04T13:42:02.066Z,10.20
2022-12-04T13:44:41.303Z,13.77
2022-12-04T13:47:14.290Z,14.63
2022-12-04T13:49:50.347Z,14.35
2022-12-04T13:52:40.068Z,14.32
2022-12-04T13:55:30.196Z,15.07
2022-12-04T13:58:11.170Z,13.32
2022-12-04T14:00:43.222Z,14.50
2022-12-04T14:03:39.796Z,12.98
2022-12-04T14:06:32.652Z,17.92
2022-12-04T14:09:16.792Z,21.05
2022-12-04T14:11:57.839Z,17.55
2022-12-04T14:14:45.809Z,20.88
2022-12-04T14:17:32.097Z,19.33
2022-12-04T14:20:09.867Z,21.55
2022-12-04T14:22:43.516Z,19.50
2022-12-04T14:25:16.711Z,19.02
2022-12-04T14:27:51.842Z,19.42
2022-12-04T14:30:32.605Z,24.40
2022-12-04T14:33:09.408Z,19.70
2022-12-04T14:35:46.218Z,22.80
2022-12-04T14:38:20.163Z,16.08
2022-12-04T14:40:50.763Z,20.27
2022-12-04T14:43:27.188Z,19.15
2022-12-04T14:46:10.307Z,18.27
2022-12-04T14:51:47.314Z,21.15
2022-12-04T14:54:49.293Z,22.13
2022-12-04T14:57:17.287Z,18.08
2022-12-04T15:00:05.038Z,21.80
2022-12-04T15:02:38.301Z,19.38
2022-12-04T15:05:10.604Z,20.85
2022-12-04T15:07:45.363Z,19.48
2022-12-04T15:10:50.033Z,22.48
2022-12-04T15:13:31.475Z,24.20
2022-12-04T15:15:58.830Z,26.30
2022-12-04T15:18:28.185Z,27.75
2022-12-04T15:21:00.096Z,22.10
2022-12-04T15:23:40.472Z,23.55
2022-12-04T15:26:18.921Z,22.60
2022-12-04T15:28:58.252Z,21.95
2022-12-04T15:31:28.311Z,26.17
2022-12-04T15:34:03.407Z,28.42
2022-12-04T15:36:43.057Z,24.95
2022-12-04T15:39:20.507Z,21.25
2022-12-04T15:41:48.418Z,22.95
2022-12-04T15:44:30.219Z,25.63
2022-12-04T15:47:25.472Z,26.90
2022-12-04T15:50:09.485Z,22.02
2022-12-04T15:52:41.317Z,23.75
2022-12-04T15:55:13.414Z,24.80
2022-12-04T15:57:42.736Z,27.17
2022-12-04T16:00:32.935Z,28.55
2022-12-04T16:03:07.204Z,27.58
2022-12-04T16:05:36.925Z,25.95
2022-12-04T16:08:24.735Z,26.38
2022-12-04T16:11:05.954Z,23.05
2022-12-04T16:13:36.512Z,26.52
2022-12-04T16:16:10.975Z,25.85
2022-12-04T16:18:39.502Z,24.08
2022-12-04T16:21:17.350Z,27.60
2022-12-04T16:23:45.362Z,25.42
2022-12-04T16:26:18.319Z,22.73
2022-12-04T16:28:45.784Z,23.58
2022-12-04T16:31:13.908Z,25.38
2022-12-04T16:33:41.101Z,24.13
2022-12-04T16:36:12.627Z,21.08
2022-12-04T16:38:39.873Z,19.67
2022-12-04T16:41:12.810Z,18.17
2022-12-04T16:43:39.780Z,23.38
2022-12-04T16:46:11.057Z,22.60
2022-12-04T16:48:38.637Z,24.77
2022-12-04T16:51:05.870Z,23.60
2022-12-04T16:53:32.963Z,18.40
2022-12-04T16:56:00.117Z,20.20
2022-12-04T16:58:27.178Z,21.90
2022-12-04T17:00:56.453Z,24.48
2022-12-04T17:03:30.020Z,22.20
2022-12-04T17:05:58.092Z,26.50
2022-12-04T17:08:25.147Z,25.77
2022-12-04T17:10:52.643Z,24.35
2022-12-04T17:13:21.639Z,21.05
2022-12-04T17:15:49.553Z,24.55
2022-12-04T17:18:20.984Z,23.20
2022-12-04T17:20:48.724Z,22.80
2022-12-04T17:23:16.012Z,23.08
2022-12-04T17:25:43.120Z,27.98
2022-12-04T17:28:10.222Z,22.05
2022-12-04T17:30:37.410Z,21.15
2022-12-04T17:33:05.442Z,23.63
2022-12-04T17:35:32.596Z,20.45
2022-12-04T17:38:05.614Z,21.33
2022-12-04T17:40:33.517Z,20.70
2022-12-04T17:43:00.655Z,20.10
2022-12-04T17:45:28.816Z,24.27
2022-12-04T17:47:55.858Z,23.08
2022-12-04T17:50:22.881Z,23.52
2022-12-04T17:52:49.974Z,21.88
2022-12-04T17:55:17.163Z,20.58
2022-12-04T17:57:44.176Z,18.40
2022-12-04T18:00:11.609Z,22.85
2022-12-04T18:02:42.472Z,20.95
2022-12-04T18:05:11.153Z,22.67
2022-12-04T18:07:38.267Z,26.25
2022-12-04T18:10:05.997Z,26.50
2022-12-04T18:12:32.892Z,26.80
2022-12-04T18:14:59.900Z,24.23
2022-12-04T18:17:26.891Z,22.80
2022-12-04T18:20:02.642Z,28.45
2022-12-04T18:22:31.669Z,23.73
2022-12-04T18:24:58.889Z,20.05
2022-12-04T18:27:26.011Z,25.08
2022-12-04T18:29:53.435Z,21.58
2022-12-04T18:32:22.670Z,25.17
2022-12-04T18:34:49.809Z,22.85
2022-12-04T18:37:16.755Z,22.58
2022-12-04T18:39:43.960Z,19.88
2022-12-04T18:42:10.867Z,23.20
2022-12-04T18:44:37.791Z,22.67
2022-12-04T18:47:04.681Z,21.45
2022-12-04T18:49:31.635Z,19.95
2022-12-04T18:51:59.638Z,23.73
2022-12-04T18:54:26.629Z,20.92
2022-12-04T18:56:56.362Z,24.65
2022-12-04T18:59:26.153Z,25.88
2022-12-04T19:01:54.248Z,24.30
2022-12-04T19:04:25.333Z,26.45
2022-12-04T19:06:55.272Z,29.75
2022-12-04T19:09:54.271Z,21.95
2022-12-04T19:12:14.911Z,24.40
2022-12-04T19:14:42.063Z,30.83
2022-12-04T19:17:09.337Z,25.85
2022-12-04T19:19:36.335Z,25.80
2022-12-04T19:22:04.181Z,30.38
2022-12-04T19:24:31.254Z,32.90
2022-12-04T19:26:58.506Z,26.53
2022-12-04T19:29:25.596Z,24.08
2022-12-04T19:31:58.792Z,24.83
2022-12-04T19:34:26.808Z,30.58
2022-12-04T19:36:56.946Z,26.67
2022-12-04T19:39:24.548Z,28.80
2022-12-04T19:41:52.864Z,29.60
2022-12-04T19:44:47.965Z,28.63
2022-12-04T19:47:11.178Z,28.50
2022-12-04T19:49:38.319Z,30.55
2022-12-04T19:52:05.454Z,25.80
2022-12-04T19:54:32.548Z,27.95
2022-12-04T19:56:59.629Z,31.42
2022-12-04T19:59:28.561Z,31.27
2022-12-04T20:01:58.865Z,31.30
2022-12-04T20:04:28.343Z,35.60
2022-12-04T20:06:55.485Z,32.05
2022-12-04T20:09:22.794Z,28.77
2022-12-04T20:11:49.885Z,27.05
2022-12-04T20:14:17.229Z,33.28
2022-12-04T20:16:44.927Z,26.73
2022-12-04T20:19:16.478Z,32.10
2022-12-04T20:21:44.638Z,32.95
2022-12-04T20:24:14.266Z,31.92
2022-12-04T20:26:42.982Z,27.42
2022-12-04T20:29:13.405Z,32.70
2022-12-04T20:31:42.998Z,27.77
2022-12-04T20:34:18.599Z,27.17
2022-12-04T20:36:47.194Z,26.40
2022-12-04T20:39:15.772Z,24.63
2022-12-04T20:41:43.386Z,29.20
2022-12-04T20:44:14.565Z,27.85
2022-12-04T20:46:42.825Z,26.38
2022-12-04T20:49:20.846Z,26.52
2022-12-04T20:51:58.714Z,28.95
2022-12-04T20:54:25.947Z,28.67
2022-12-04T20:56:53.674Z,24.75
2022-12-04T20:59:22.758Z,22.52
2022-12-04T21:01:51.443Z,26.42
2022-12-04T21:04:19.488Z,20.77
2022-12-04T21:06:47.039Z,27.27
2022-12-04T21:09:20.017Z,23.02
2022-12-04T21:11:50.924Z,26.83
2022-12-04T21:14:39.399Z,27.95
2022-12-04T21:17:09.289Z,26.33
2022-12-04T21:19:36.585Z,24.88
2022-12-04T21:22:03.999Z,28.52
2022-12-04T21:24:36.293Z,26.90
2022-12-04T21:27:07.988Z,24.08
2022-12-04T21:29:37.102Z,31.47
2022-12-04T21:32:06.133Z,25.77
2022-12-04T21:34:33.295Z,30.35
2022-12-04T21:37:00.487Z,34.58
2022-12-04T21:39:27.648Z,30.45
2022-12-04T21:42:13.529Z,27.15
2022-12-04T21:44:40.753Z,25.42
2022-12-04T21:47:18.881Z,25.48
2022-12-04T21:49:49.214Z,25.58
2022-12-04T21:52:16.927Z,24.73
2022-12-04T21:54:44.203Z,22.40
2022-12-04T21:57:11.246Z,23.15
2022-12-04T21:59:38.267Z,25.80
2022-12-04T22:02:05.501Z,27.17
2022-12-04T22:04:32.615Z,24.65
2022-12-04T22:06:59.664Z,30.83
2022-12-04T22:09:26.989Z,25.50
2022-12-04T22:11:58.454Z,26.02
2022-12-04T22:14:28.042Z,30.48
2022-12-04T22:16:59.197Z,26.50
2022-12-04T22:19:26.321Z,24.38
2022-12-04T22:21:56.280Z,28.48
2022-12-04T22:24:32.301Z,28.55
2022-12-04T22:27:01.847Z,26.40
2022-12-04T22:32:17.905Z,20.67
2022-12-04T22:34:49.172Z,20.75
2022-12-04T22:37:18.816Z,21.92
2022-12-04T22:39:45.700Z,21.83
2022-12-04T22:42:12.591Z,23.15
2022-12-04T22:44:39.460Z,24.45
2022-12-04T22:47:06.599Z,23.30
2022-12-04T22:49:33.631Z,24.48
2022-12-04T22:52:00.876Z,24.20
2022-12-04T22:54:29.828Z,26.17
2022-12-04T22:56:57.846Z,28.95
2022-12-04T22:59:27.243Z,24.67
2022-12-04T23:02:01.546Z,24.00
2022-12-04T23:04:28.977Z,32.22
2022-12-04T23:06:58.147Z,24.90
2022-12-04T23:09:28.490Z,23.90
2022-12-04T23:11:56.462Z,26.15
2022-12-04T23:14:32.007Z,25.65
2022-12-04T23:17:00.372Z,26.25
2022-12-04T23:19:31.327Z,25.92
2022-12-04T23:21:58.586Z,32.35
2022-12-04T23:24:28.145Z,29.20
2022-12-04T23:27:00.069Z,31.00
2022-12-04T23:29:51.999Z,29.73
2022-12-04T23:32:16.692Z,25.10
2022-12-04T23:34:43.638Z,23.08
2022-12-04T23:37:10.851Z,24.55
2022-12-04T23:39:40.052Z,23.55
2022-12-04T23:42:09.482Z,22.25
2022-12-04T23:44:42.241Z,21.08
2022-12-04T23:47:11.637Z,21.55
2022-12-04T23:49:41.088Z,25.98
2022-12-04T23:52:08.007Z,28.27
2022-12-04T23:54:37.683Z,25.15
2022-12-04T23:57:04.754Z,22.38
2022-12-04T23:59:31.670Z,25.85
